Time;durP1;ratioP1;P1;durP2;ratioP2;P2;SDS_P1;SDS_P2;PMS_P1;PMS_P2;Temp;Humidity;BMP_temperature;BMP_pressure;BME280_temperature;BME280_humidity;BME280_pressure;Samples;Min_cycle;Max_cycle;Signal;HPM_P1;HPM_P2
2022/08/28 00:01:56;;;;;;;;;;;;;;;21.36;41.66;99566.41;4940111;29;20318;-91
2022/08/28 00:04:23;;;;;;;;;;;;;;;21.35;41.62;99568.34;4938264;29;19977;-90
2022/08/28 00:06:50;;;;;;;;;;;;;;;21.31;41.77;99561.84;4918295;29;19954;-89
2022/08/28 00:09:17;;;;;;;;;;;;;;;21.28;41.93;99561.63;4934737;29;20305;-88
2022/08/28 00:11:44;;;;;;;;;;;;;;;21.28;42.34;99559.69;4934686;29;19930;-87
2022/08/28 00:14:11;;;;;;;;;;;;;;;21.27;42.34;99558.09;4934585;29;19930;-88
2022/08/28 00:16:38;;;;;;;;;;;;;;;21.25;42.55;99554.81;4928575;29;19930;-87
2022/08/28 00:19:05;;;;;;;;;;;;;;;21.24;42.51;99560.59;4933364;29;20455;-87
2022/08/28 00:21:32;;;;;;;;;;;;;;;21.21;42.64;99551.84;4934631;29;19934;-87
2022/08/28 00:23:59;;;;;;;;;;;;;;;21.16;42.56;99557.44;4915757;29;20354;-86
2022/08/28 00:29:12;;;;;;;;;;;;;;;21.07;42.88;99545.53;4934617;29;20344;-85
2022/08/28 00:31:39;;;;;;;;;;;;;;;21.02;42.99;99547.56;4936039;29;20437;-90
2022/08/28 00:34:06;;;;;;;;;;;;;;;21.00;43.20;99548.66;4937126;29;19982;-87
2022/08/28 00:36:33;;;;;;;;;;;;;;;20.98;43.24;99547.31;4934803;29;19934;-88
2022/08/28 00:39:11;;;;;;;;;;;;;;;20.98;43.01;99552.81;4940777;29;20020;-87
2022/08/28 00:41:39;;;;;;;;;;;;;;;20.97;43.25;99546.50;4936849;29;19969;-88
2022/08/28 00:44:14;;;;;;;;;;;;;;;20.97;43.29;99546.50;4920679;29;19953;-88
2022/08/28 00:46:43;;;;;;;;;;;;;;;20.97;43.04;99548.44;4953729;28;19934;-87
2022/08/28 00:49:10;;;;;;;;;;;;;;;20.96;43.01;99547.63;4937469;29;19930;-88
2022/08/28 00:54:23;;;;;;;;;;;;;;;20.95;43.54;99545.19;4940749;29;19969;-87
2022/08/28 00:56:52;;;;;;;;;;;;;;;20.93;43.50;99541.91;4957784;29;19930;-88
2022/08/28 00:59:20;;;;;;;;;;;;;;;20.92;43.56;99537.56;4955286;28;19958;-86
2022/08/28 01:01:47;;;;;;;;;;;;;;;20.92;43.52;99543.06;4958169;28;20029;-90
2022/08/28 01:04:19;;;;;;;;;;;;;;;20.91;43.68;99547.69;4939703;29;20456;-89
2022/08/28 01:06:47;;;;;;;;;;;;;;;20.89;43.68;99544.47;4932532;29;19977;-87
2022/08/28 01:09:14;;;;;;;;;;;;;;;20.86;43.44;99544.22;4957802;29;20033;-86
2022/08/28 01:11:46;;;;;;;;;;;;;;;20.85;43.72;99539.88;4955754;29;19986;-89
2022/08/28 01:14:14;;;;;;;;;;;;;;;20.82;43.71;99538.53;4955688;29;20278;-87
2022/08/28 01:16:41;;;;;;;;;;;;;;;20.82;43.90;99529.50;4956352;29;19930;-89
2022/08/28 01:19:12;;;;;;;;;;;;;;;20.78;43.85;99527.34;4956095;29;20460;-87
2022/08/28 01:21:43;;;;;;;;;;;;;;;20.76;43.91;99523.25;4937697;29;20394;-88
2022/08/28 01:24:13;;;;;;;;;;;;;;;20.71;44.13;99515.97;4924565;29;19931;-86
2022/08/28 01:26:40;;;;;;;;;;;;;;;20.66;44.36;99521.53;4956311;29;20385;-86
2022/08/28 01:29:07;;;;;;;;;;;;;;;20.63;44.22;99516.63;4957668;29;19930;-86
2022/08/28 01:31:36;;;;;;;;;;;;;;;20.61;44.41;99507.91;4957612;29;19958;-90
2022/08/28 01:34:04;;;;;;;;;;;;;;;20.59;44.51;99510.13;4957295;29;19962;-89
2022/08/28 01:36:32;;;;;;;;;;;;;;;20.58;44.59;99511.22;4940226;29;19974;-89
2022/08/28 01:39:04;;;;;;;;;;;;;;;20.55;44.73;99507.13;4956831;29;19950;-88
2022/08/28 01:41:32;;;;;;;;;;;;;;;20.54;44.83;99515.66;4940648;29;19931;-88
2022/08/28 01:43:59;;;;;;;;;;;;;;;20.51;44.85;99511.56;4940367;29;19930;-89
2022/08/28 01:46:26;;;;;;;;;;;;;;;20.50;44.83;99520.91;4941369;29;19966;-87
2022/08/28 01:48:54;;;;;;;;;;;;;;;20.50;44.99;99520.91;4958017;29;19934;-90
2022/08/28 01:51:20;;;;;;;;;;;;;;;20.52;45.06;99528.84;4957418;29;20367;-89
2022/08/28 01:53:50;;;;;;;;;;;;;;;20.52;44.94;99526.09;4956988;29;19931;-89
2022/08/28 01:56:17;;;;;;;;;;;;;;;20.52;45.08;99515.94;4957409;29;19930;-89
2022/08/28 01:58:46;;;;;;;;;;;;;;;20.55;45.03;99520.03;4939426;29;19958;-88
2022/08/28 02:01:18;;;;;;;;;;;;;;;20.54;45.07;99521.13;4939881;29;19938;-89
2022/08/28 02:03:45;;;;;;;;;;;;;;;20.53;44.92;99520.31;4956327;29;19936;-89
2022/08/28 02:06:12;;;;;;;;;;;;;;;20.55;44.91;99522.78;4956734;29;19978;-88
2022/08/28 02:08:39;;;;;;;;;;;;;;;20.53;45.08;99522.22;4956696;29;19931;-87
2022/08/28 02:11:07;;;;;;;;;;;;;;;20.51;45.20;99519.00;4956511;29;19941;-88
2022/08/28 02:13:35;;;;;;;;;;;;;;;20.48;45.53;99511.34;4923740;29;19931;-86
2022/08/28 02:16:03;;;;;;;;;;;;;;;20.49;45.46;99508.31;4941959;29;19930;-87
2022/08/28 02:18:30;;;;;;;;;;;;;;;20.50;45.47;99514.59;4960659;29;19934;-88
2022/08/28 02:20:58;;;;;;;;;;;;;;;20.50;45.32;99514.59;4943570;29;19930;-85
2022/08/28 02:23:25;;;;;;;;;;;;;;;20.49;45.51;99511.06;4960999;29;20377;-88
2022/08/28 02:25:52;;;;;;;;;;;;;;;20.49;45.81;99508.31;4961484;29;19965;-88
2022/08/28 02:28:19;;;;;;;;;;;;;;;20.47;45.86;99515.22;4923707;29;19989;-89
2022/08/28 02:30:45;;;;;;;;;;;;;;;20.45;45.52;99520.97;4956357;29;19985;-87
2022/08/28 02:33:13;;;;;;;;;;;;;;;20.43;45.79;99520.44;4939113;29;19938;-89
2022/08/28 02:35:41;;;;;;;;;;;;;;;20.43;45.78;99523.19;4956294;29;20416;-88
2022/08/28 02:38:09;;;;;;;;;;;;;;;20.46;45.67;99513.56;4955979;29;19930;-88
2022/08/28 02:40:37;;;;;;;;;;;;;;;20.46;45.90;99503.44;4956456;29;20278;-88
2022/08/28 02:43:04;;;;;;;;;;;;;;;20.45;46.10;99500.97;4955355;29;19930;-89
2022/08/28 02:45:32;;;;;;;;;;;;;;;20.47;45.89;99504.25;4956026;29;19957;-88
2022/08/28 02:48:00;;;;;;;;;;;;;;;20.46;45.90;99503.44;4956002;29;19954;-88
2022/08/28 02:50:28;;;;;;;;;;;;;;;20.45;46.13;99495.50;4939916;29;19937;-88
2022/08/28 02:52:55;;;;;;;;;;;;;;;20.42;46.08;99504.31;4961062;29;20409;-87
2022/08/28 02:55:23;;;;;;;;;;;;;;;20.41;45.93;99499.94;4955955;29;19973;-88
2022/08/28 02:57:51;;;;;;;;;;;;;;;20.38;46.29;99501.34;4938146;29;19930;-88
2022/08/28 03:00:19;;;;;;;;;;;;;;;20.37;46.40;99498.91;4938301;29;19962;-88
2022/08/28 03:02:46;;;;;;;;;;;;;;;20.37;46.40;99509.88;4938276;29;19934;-88
2022/08/28 03:05:14;;;;;;;;;;;;;;;20.35;46.47;99500.00;4955054;29;19930;-86
2022/08/28 03:07:41;;;;;;;;;;;;;;;20.37;46.37;99504.41;4938140;29;19985;-86
2022/08/28 03:10:09;;;;;;;;;;;;;;;20.34;46.74;99498.41;4938038;28;19931;-87
2022/08/28 03:12:37;;;;;;;;;;;;;;;20.32;46.93;99502.53;4947867;29;20413;-88
2022/08/28 03:15:04;;;;;;;;;;;;;;;20.28;46.93;99499.59;4955429;29;19931;-89
2022/08/28 03:17:31;;;;;;;;;;;;;;;20.25;47.08;99504.84;4954793;28;20028;-89
2022/08/28 03:19:59;;;;;;;;;;;;;;;20.24;47.05;99503.22;4926072;29;19930;-89
2022/08/28 03:25:11;;;;;;;;;;;;;;;20.19;47.39;99508.78;4957025;29;19930;-90
2022/08/28 03:27:39;;;;;;;;;;;;;;;20.20;47.44;99502.16;4958941;29;19931;-91
2022/08/28 03:30:06;;;;;;;;;;;;;;;20.18;47.61;99505.22;4958266;29;19934;-89
2022/08/28 03:32:38;;;;;;;;;;;;;;;20.20;47.60;99504.91;4954533;29;19931;-90
2022/08/28 03:35:05;;;;;;;;;;;;;;;20.23;47.46;99509.78;4955473;29;20032;-88
2022/08/28 03:37:32;;;;;;;;;;;;;;;20.25;47.27;99502.91;4937844;29;19970;-92
2022/08/28 03:39:59;;;;;;;;;;;;;;;20.28;47.48;99506.97;4953924;29;19969;-89
2022/08/28 03:42:28;;;;;;;;;;;;;;;20.27;47.74;99505.34;4942249;29;19931;-89
2022/08/28 03:44:57;;;;;;;;;;;;;;;20.30;47.51;99494.59;4938127;29;19957;-89
2022/08/28 03:47:24;;;;;;;;;;;;;;;20.34;47.39;99492.09;4954748;29;19930;-90
2022/08/28 03:49:55;;;;;;;;;;;;;;;20.38;47.58;99495.84;4955565;29;19930;-90
2022/08/28 03:52:22;;;;;;;;;;;;;;;20.41;47.53;99499.94;4954957;29;19958;-89
2022/08/28 03:54:49;;;;;;;;;;;;;;;20.40;47.65;99510.09;4955715;29;19938;-90
2022/08/28 03:57:20;;;;;;;;;;;;;;;20.43;47.74;99508.69;4942004;29;19946;-91
2022/08/28 03:59:47;;;;;;;;;;;;;;;20.46;47.58;99506.19;4956575;29;19934;-90
2022/08/28 04:02:17;;;;;;;;;;;;;;;20.49;47.41;99513.00;4956725;29;19931;-91
2022/08/28 04:04:47;;;;;;;;;;;;;;;20.54;47.56;99499.19;4938836;29;19976;-90
2022/08/28 04:07:13;;;;;;;;;;;;;;;20.59;47.54;99509.31;4938036;29;20017;-91
2022/08/28 04:09:40;;;;;;;;;;;;;;;20.60;47.46;99494.47;4955317;29;20021;-90
2022/08/28 04:12:07;;;;;;;;;;;;;;;20.54;47.63;99496.47;4938462;29;19931;-91
2022/08/28 04:14:34;;;;;;;;;;;;;;;20.63;47.49;99502.91;4937677;29;20345;-90
2022/08/28 04:17:02;;;;;;;;;;;;;;;20.65;47.54;99489.72;4955695;29;19931;-90
2022/08/28 04:19:29;;;;;;;;;;;;;;;20.64;47.81;99488.09;4937651;29;20393;-88
2022/08/28 04:21:56;;;;;;;;;;;;;;;20.68;47.84;99494.59;4955236;28;19930;-90
2022/08/28 04:24:23;;;;;;;;;;;;;;;20.71;47.76;99498.66;4954413;29;19931;-88
2022/08/28 04:26:50;;;;;;;;;;;;;;;20.78;47.83;99496.34;4938633;29;20353;-90
2022/08/28 04:29:17;;;;;;;;;;;;;;;20.84;47.56;99499.81;4938504;29;19967;-88
2022/08/28 04:31:44;;;;;;;;;;;;;;;20.85;47.81;99499.53;4955518;29;20357;-89
2022/08/28 04:34:11;;;;;;;;;;;;;;;20.83;47.79;99495.47;4922485;29;20037;-89
2022/08/28 04:36:38;;;;;;;;;;;;;;;20.85;47.62;99496.78;4955717;29;19930;-87
2022/08/28 04:39:07;;;;;;;;;;;;;;;20.86;47.93;99501.16;4922419;29;19978;-86
2022/08/28 04:41:36;;;;;;;;;;;;;;;20.89;47.64;99502.47;4954902;29;19930;-89
2022/08/28 04:44:04;;;;;;;;;;;;;;;20.90;47.60;99501.38;4921519;29;19997;-87
2022/08/28 04:46:31;;;;;;;;;;;;;;;20.90;47.89;99504.13;4953933;29;20017;-87
2022/08/28 04:48:58;;;;;;;;;;;;;;;20.86;47.85;99490.19;4954870;29;20406;-87
2022/08/28 04:51:25;;;;;;;;;;;;;;;20.86;48.03;99494.84;4954543;29;19958;-88
2022/08/28 04:53:52;;;;;;;;;;;;;;;20.84;47.93;99497.91;4939580;29;19937;-87
2022/08/28 04:56:19;;;;;;;;;;;;;;;20.82;48.29;99488.38;4938055;29;19985;-88
2022/08/28 04:58:46;;;;;;;;;;;;;;;20.78;48.37;99485.38;4940101;29;19930;-87
2022/08/28 05:01:17;;;;;;;;;;;;;;;20.74;48.15;99487.94;4921807;29;19930;-88
2022/08/28 05:03:52;;;;;;;;;;;;;;;20.73;48.28;99489.03;4952992;29;19930;-89
2022/08/28 05:06:20;;;;;;;;;;;;;;;20.71;48.60;99488.53;4954477;29;20029;-88
2022/08/28 05:08:47;;;;;;;;;;;;;;;20.67;48.49;99483.94;4953875;29;19962;-88
2022/08/28 05:11:15;;;;;;;;;;;;;;;20.63;48.80;99491.94;4950493;29;20295;-90
2022/08/28 05:14:03;;;;;;;;;;;;;;;20.65;48.60;99488.91;4937142;29;19953;-88
2022/08/28 05:16:33;;;;;;;;;;;;;;;20.62;48.81;99479.34;4934151;29;19930;-89
2022/08/28 05:19:06;;;;;;;;;;;;;;;20.66;49.06;99469.44;4950511;29;19938;-89
2022/08/28 05:21:36;;;;;;;;;;;;;;;20.69;48.97;99474.31;4589321;29;9999973;-88
2022/08/28 05:24:03;;;;;;;;;;;;;;;20.74;48.99;99470.66;4930823;29;19935;-88
2022/08/28 05:26:30;;;;;;;;;;;;;;;20.74;48.93;99474.22;4932922;29;19930;-87
2022/08/28 05:28:58;;;;;;;;;;;;;;;20.72;49.15;99465.47;4893158;29;19935;-89
2022/08/28 05:31:35;;;;;;;;;;;;;;;20.74;49.26;99468.72;4935545;29;20023;-91
2022/08/28 05:34:03;;;;;;;;;;;;;;;20.76;49.53;99463.75;4916244;29;20450;-86
2022/08/28 05:36:33;;;;;;;;;;;;;;;20.80;49.47;99460.41;4947259;29;20374;-89
2022/08/28 05:39:01;;;;;;;;;;;;;;;20.84;49.41;99458.69;4934623;29;19931;-84
2022/08/28 05:41:29;;;;;;;;;;;;;;;20.87;49.28;99461.66;4934734;29;20250;-88
2022/08/28 05:43:56;;;;;;;;;;;;;;;20.92;49.31;99455.25;4901959;29;19993;-88
2022/08/28 05:46:27;;;;;;;;;;;;;;;20.93;49.52;99441.22;4945104;29;19930;-89
2022/08/28 05:48:54;;;;;;;;;;;;;;;20.93;49.45;99446.72;4927798;29;19930;-82
2022/08/28 05:51:22;;;;;;;;;;;;;;;20.96;49.75;99442.56;4955215;29;19930;-86
2022/08/28 05:53:50;;;;;;;;;;;;;;;21.03;50.00;99437.47;4941681;29;19930;-86
2022/08/28 05:56:18;;;;;;;;;;;;;;;21.17;49.75;99445.75;4938722;29;20046;-87
2022/08/28 05:58:54;;;;;;;;;;;;;;;21.50;48.82;99437.44;4937805;29;19931;-86
2022/08/28 06:01:23;;;;;;;;;;;;;;;21.82;48.25;99430.97;4934169;29;20421;-88
2022/08/28 06:03:53;;;;;;;;;;;;;;;22.02;47.37;99433.25;4945336;29;20325;-87
2022/08/28 06:06:21;;;;;;;;;;;;;;;22.23;46.93;99427.28;4933705;29;19930;-86
2022/08/28 06:08:50;;;;;;;;;;;;;;;22.45;46.95;99421.78;4941771;29;19946;-88
2022/08/28 06:11:25;;;;;;;;;;;;;;;22.66;46.46;99419.38;4930794;29;19930;-87
2022/08/28 06:14:03;;;;;;;;;;;;;;;22.87;45.94;99416.88;4953543;29;20016;-83
2022/08/28 06:16:30;;;;;;;;;;;;;;;23.18;45.46;99423.53;4955460;29;20325;-87
2022/08/28 06:18:58;;;;;;;;;;;;;;;23.41;45.16;99424.25;4949034;29;20063;-85
2022/08/28 06:21:25;;;;;;;;;;;;;;;23.54;45.05;99440.63;4955928;29;19930;-84
2022/08/28 06:23:51;;;;;;;;;;;;;;;23.70;44.48;99426.41;4952455;29;20077;-89
2022/08/28 06:26:19;;;;;;;;;;;;;;;23.97;44.20;99423.38;4956095;29;19977;-88
2022/08/28 06:28:45;;;;;;;;;;;;;;;24.30;43.67;99413.81;4938361;29;19981;-87
2022/08/28 06:31:12;;;;;;;;;;;;;;;24.56;42.55;99422.06;4935635;29;19935;-85
2022/08/28 06:33:52;;;;;;;;;;;;;;;24.68;42.50;99421.41;4954987;29;20380;-86
2022/08/28 06:36:20;;;;;;;;;;;;;;;24.68;41.77;99426.94;4955088;29;19974;-87
2022/08/28 06:38:47;;;;;;;;;;;;;;;24.83;42.34;99426.41;4938182;29;19941;-87
2022/08/28 06:41:14;;;;;;;;;;;;;;;24.93;41.86;99414.19;4935442;29;19937;-87
2022/08/28 06:43:41;;;;;;;;;;;;;;;25.04;41.96;99419.03;4954407;29;19931;-86
2022/08/28 06:46:08;;;;;;;;;;;;;;;25.14;41.44;99409.56;4954169;28;20357;-85
2022/08/28 06:48:35;;;;;;;;;;;;;;;25.14;41.32;99409.56;4937895;29;19937;-85
2022/08/28 06:51:05;;;;;;;;;;;;;;;25.18;40.97;99418.03;4951789;29;19930;-85
2022/08/28 06:53:32;;;;;;;;;;;;;;;25.17;41.26;99421.91;4948930;29;20421;-87
2022/08/28 06:56:06;;;;;;;;;;;;;;;25.34;40.73;99424.59;4930639;29;19953;-92
2022/08/28 06:58:37;;;;;;;;;;;;;;;25.37;40.41;99425.88;4953791;29;19931;-87
2022/08/28 07:01:27;;;;;;;;;;;;;;;25.48;40.47;99425.19;4949365;29;20386;-92
2022/08/28 07:04:00;;;;;;;;;;;;;;;25.65;39.78;99420.69;4939932;28;19937;-88
2022/08/28 07:06:29;;;;;;;;;;;;;;;25.61;39.83;99414.22;4943819;29;19934;-90
2022/08/28 07:08:56;;;;;;;;;;;;;;;25.50;39.91;99416.56;4953882;29;19931;-87
2022/08/28 07:11:25;;;;;;;;;;;;;;;25.44;40.47;99426.19;4926837;29;19962;-89
2022/08/28 07:13:52;;;;;;;;;;;;;;;25.49;40.65;99426.78;4950812;29;20024;-87
2022/08/28 07:16:21;;;;;;;;;;;;;;;25.42;40.85;99428.47;4937753;29;20019;-87
2022/08/28 07:18:48;;;;;;;;;;;;;;;25.36;41.06;99433.38;4919289;29;20373;-88
2022/08/28 07:21:20;;;;;;;;;;;;;;;25.38;41.13;99436.63;4930899;29;20025;-87
2022/08/28 07:23:47;;;;;;;;;;;;;;;25.37;41.38;99425.88;4941123;29;20034;-90
2022/08/28 07:26:16;;;;;;;;;;;;;;;25.27;40.94;99427.09;4951597;29;19930;-90
2022/08/28 07:28:44;;;;;;;;;;;;;;;25.32;40.87;99426.06;4934032;29;19930;-89
2022/08/28 07:31:13;;;;;;;;;;;;;;;25.32;41.42;99426.06;4935048;29;20417;-91
2022/08/28 07:33:40;;;;;;;;;;;;;;;25.28;41.65;99420.41;4922728;29;19937;-90
2022/08/28 07:36:10;;;;;;;;;;;;;;;25.26;41.59;99417.16;4910774;29;19935;-87
2022/08/28 07:38:54;;;;;;;;;;;;;;;25.34;41.41;99421.03;4920011;29;19930;-89
2022/08/28 07:41:23;;;;;;;;;;;;;;;25.36;41.73;99427.84;4935913;29;20286;-88
2022/08/28 07:46:37;;;;;;;;;;;;;;;25.67;41.30;99421.16;4933670;29;20233;-90
2022/08/28 07:49:11;;;;;;;;;;;;;;;25.77;41.45;99414.44;4915882;29;20405;-89
2022/08/28 07:51:41;;;;;;;;;;;;;;;25.87;41.13;99419.59;4900267;29;20025;-92
2022/08/28 07:54:12;;;;;;;;;;;;;;;26.05;40.69;99425.78;4916110;29;19930;-89
2022/08/28 07:56:44;;;;;;;;;;;;;;;26.25;40.50;99415.88;4926754;28;19930;-89
2022/08/28 07:59:16;;;;;;;;;;;;;;;26.33;40.57;99415.81;4925668;29;19930;-91
2022/08/28 08:01:49;;;;;;;;;;;;;;;26.52;40.39;99412.53;4920067;29;20071;-92
2022/08/28 08:07:19;;;;;;;;;;;;;;;26.96;39.15;99410.09;4918835;29;19930;-89
2022/08/28 08:09:48;;;;;;;;;;;;;;;27.09;38.90;99404.56;4915933;29;20243;-89
2022/08/28 08:12:19;;;;;;;;;;;;;;;27.17;38.98;99403.69;4944862;29;20032;-87
2022/08/28 08:14:48;;;;;;;;;;;;;;;27.31;38.99;99406.13;4928541;29;19930;-87
2022/08/28 08:17:17;;;;;;;;;;;;;;;27.58;38.77;99408.19;4937322;29;20042;-89
2022/08/28 08:19:47;;;;;;;;;;;;;;;27.90;38.43;99405.59;4937108;29;19939;-87
2022/08/28 08:22:15;;;;;;;;;;;;;;;27.99;37.90;99400.72;4953274;29;20388;-90
2022/08/28 08:24:43;;;;;;;;;;;;;;;28.28;37.02;99405.13;4954601;29;19931;-87
2022/08/28 08:27:10;;;;;;;;;;;;;;;28.64;36.20;99408.13;4953517;29;20028;-89
2022/08/28 08:29:38;;;;;;;;;;;;;;;28.74;35.18;99397.28;4945200;29;20045;-90
2022/08/28 08:32:09;;;;;;;;;;;;;;;28.91;34.61;99401.66;4935548;29;20381;-88
2022/08/28 08:34:40;;;;;;;;;;;;;;;29.10;33.97;99405.75;4950246;29;20054;-88
2022/08/28 08:37:07;;;;;;;;;;;;;;;29.45;33.87;99402.19;4925047;29;19934;-90
2022/08/28 08:39:36;;;;;;;;;;;;;;;29.79;33.12;99408.97;4953333;29;20428;-91
2022/08/28 08:42:11;;;;;;;;;;;;;;;30.12;32.86;99399.34;4952185;29;20354;-90
2022/08/28 08:44:40;;;;;;;;;;;;;;;30.46;32.57;99394.84;4936392;29;20221;-86
2022/08/28 08:47:29;;;;;;;;;;;;;;;30.42;32.30;99400.38;4936710;29;19934;-88
2022/08/28 08:49:57;;;;;;;;;;;;;;;30.47;32.64;99402.06;4952678;29;19964;-91
2022/08/28 08:52:25;;;;;;;;;;;;;;;30.56;32.29;99399.84;4915413;29;20038;-91
2022/08/28 08:55:14;;;;;;;;;;;;;;;30.71;31.53;99402.88;4938017;29;19930;-90
2022/08/28 08:57:46;;;;;;;;;;;;;;;30.74;31.23;99394.59;4917401;29;19931;-90
2022/08/28 09:00:18;;;;;;;;;;;;;;;30.98;30.87;99392.66;4901932;29;20010;-90
2022/08/28 09:02:52;;;;;;;;;;;;;;;31.16;30.68;99388.16;4928499;29;19931;-88
2022/08/28 09:05:20;;;;;;;;;;;;;;;31.24;30.15;99386.28;4928139;29;20313;-88
2022/08/28 09:07:57;;;;;;;;;;;;;;;31.27;29.59;99391.94;4946468;29;19937;-88
2022/08/28 09:10:27;;;;;;;;;;;;;;;31.27;29.48;99388.31;4937358;29;19930;-90
2022/08/28 09:13:12;;;;;;;;;;;;;;;31.09;30.00;99383.28;4937412;29;20033;-86
2022/08/28 09:15:43;;;;;;;;;;;;;;;30.89;30.42;99384.53;4932308;29;21044;-89
2022/08/28 09:18:16;;;;;;;;;;;;;;;30.84;30.24;99379.25;4925848;29;19930;-89
2022/08/28 09:20:57;;;;;;;;;;;;;;;30.78;30.91;99377.94;4938059;29;19937;-90
2022/08/28 09:23:25;;;;;;;;;;;;;;;30.98;30.54;99378.72;4936125;29;19946;-91
2022/08/28 09:26:00;;;;;;;;;;;;;;;31.23;30.54;99373.53;4957377;29;19930;-90
2022/08/28 09:28:49;;;;;;;;;;;;;;;31.24;30.94;99378.72;4942400;29;19931;-91
2022/08/28 09:31:30;;;;;;;;;;;;;;;31.49;30.24;99378.34;4925016;29;19937;-91
2022/08/28 09:34:15;;;;;;;;;;;;;;;32.03;28.81;99376.28;4956230;29;19934;-91
2022/08/28 09:36:43;;;;;;;;;;;;;;;32.38;28.11;99367.50;4944315;29;20342;-95
2022/08/28 09:39:16;;;;;;;;;;;;;;;32.58;27.59;99377.34;4924984;29;19938;-94
2022/08/28 09:45:12;;;;;;;;;;;;;;;33.11;26.61;99367.84;4943700;29;19941;-90
2022/08/28 09:47:40;;;;;;;;;;;;;;;33.33;25.71;99368.81;4922072;29;19937;-91
2022/08/28 09:50:20;;;;;;;;;;;;;;;33.63;24.84;99360.22;4937988;29;19931;-93
2022/08/28 09:52:47;;;;;;;;;;;;;;;34.21;23.95;99369.72;4937325;29;19930;-91
2022/08/28 09:55:26;;;;;;;;;;;;;;;34.57;22.93;99366.97;4924847;29;19937;-92
2022/08/28 09:57:53;;;;;;;;;;;;;;;35.00;22.93;99363.44;4906084;29;19930;-92
2022/08/28 10:00:33;;;;;;;;;;;;;;;35.20;22.53;99355.41;4940743;29;20374;-92
2022/08/28 10:03:14;;;;;;;;;;;;;;;35.85;22.05;99351.28;4914651;29;20406;-93
2022/08/28 10:05:58;;;;;;;;;;;;;;;35.99;21.50;99351.22;4928907;29;20006;-90
2022/08/28 10:08:28;;;;;;;;;;;;;;;36.08;20.72;99352.81;4940490;29;19930;-92
2022/08/28 10:10:59;;;;;;;;;;;;;;;36.45;20.27;99350.19;4946257;29;19966;-93
2022/08/28 10:13:35;;;;;;;;;;;;;;;36.97;19.59;99352.25;4924905;29;19938;-93
2022/08/28 10:16:23;;;;;;;;;;;;;;;37.52;19.28;99348.50;4920830;29;20377;-93
2022/08/28 10:19:03;;;;;;;;;;;;;;;36.89;19.17;99347.88;4934957;29;19930;-90
2022/08/28 10:21:40;;;;;;;;;;;;;;;35.66;20.11;99352.56;4908194;29;19986;-95
2022/08/28 10:24:30;;;;;;;;;;;;;;;35.26;21.06;99353.81;4938969;29;19988;-93
2022/08/28 10:27:24;;;;;;;;;;;;;;;35.46;20.85;99352.19;4910421;29;19931;-90
2022/08/28 10:30:07;;;;;;;;;;;;;;;35.56;21.12;99342.94;4941891;29;19930;-90
2022/08/28 10:32:39;;;;;;;;;;;;;;;35.11;21.22;99341.81;4955570;29;20021;-90
2022/08/28 10:35:10;;;;;;;;;;;;;;;35.41;20.92;99337.78;4956562;29;19993;-91
2022/08/28 10:37:37;;;;;;;;;;;;;;;35.10;20.88;99335.41;4955295;29;19934;-92
2022/08/28 10:40:37;;;;;;;;;;;;;;;34.93;21.25;99339.00;4939430;29;19930;-88
2022/08/28 10:43:33;;;;;;;;;;;;;;;35.68;20.77;99324.88;4879654;29;19935;-94
2022/08/28 10:46:03;;;;;;;;;;;;;;;36.16;20.02;99331.88;4881063;29;19939;-93
2022/08/28 10:48:58;;;;;;;;;;;;;;;35.59;20.44;99322.50;4879452;29;19967;-94
2022/08/28 10:51:27;;;;;;;;;;;;;;;36.99;19.27;99320.88;4878189;29;19931;-91
2022/08/28 10:54:03;;;;;;;;;;;;;;;37.70;19.15;99316.53;4892796;29;20392;-91
2022/08/28 10:56:33;;;;;;;;;;;;;;;37.15;19.41;99325.97;4882931;29;20036;-92
2022/08/28 10:59:00;;;;;;;;;;;;;;;36.05;20.33;99315.06;4896623;29;19931;-93
2022/08/28 11:01:29;;;;;;;;;;;;;;;35.39;21.06;99316.50;4895220;29;20442;-92
2022/08/28 11:03:58;;;;;;;;;;;;;;;34.46;21.90;99313.75;4873229;29;19932;-90
2022/08/28 11:06:33;;;;;;;;;;;;;;;33.71;22.68;99310.69;4866307;29;19932;-90
2022/08/28 11:09:23;;;;;;;;;;;;;;;33.17;23.01;99304.81;4880491;29;19931;-90
2022/08/28 11:11:51;;;;;;;;;;;;;;;32.77;23.46;99306.47;4882020;29;20449;-92
2022/08/28 11:14:36;;;;;;;;;;;;;;;32.57;24.03;99296.72;4890648;29;19932;-92
2022/08/28 11:17:24;;;;;;;;;;;;;;;32.21;24.28;99303.91;4885576;29;19932;-91
2022/08/28 11:20:12;;;;;;;;;;;;;;;31.86;24.09;99307.91;4939725;29;19937;-92
2022/08/28 11:22:42;;;;;;;;;;;;;;;31.61;24.31;99304.78;4931450;29;20025;-93
2022/08/28 11:25:16;;;;;;;;;;;;;;;31.59;24.52;99301.56;4939929;28;20308;-93
2022/08/28 11:28:13;;;;;;;;;;;;;;;31.59;24.56;99298.78;4945210;29;19937;-94
2022/08/28 11:30:45;;;;;;;;;;;;;;;31.59;24.30;99299.59;4922706;29;20345;-90
2022/08/28 11:33:34;;;;;;;;;;;;;;;31.62;24.87;99292.44;4941498;29;20354;-91
2022/08/28 11:36:19;;;;;;;;;;;;;;;31.65;24.42;99297.25;4959931;29;19937;-88
2022/08/28 11:38:52;;;;;;;;;;;;;;;31.69;24.78;99290.53;4933519;29;20037;-91
2022/08/28 11:41:26;;;;;;;;;;;;;;;31.71;24.58;99295.75;4919453;29;19931;-88
2022/08/28 11:44:08;;;;;;;;;;;;;;;31.83;24.40;99292.72;4920945;29;19931;-88
2022/08/28 11:46:36;;;;;;;;;;;;;;;32.01;24.46;99287.38;4939173;29;19974;-91
2022/08/28 11:49:26;;;;;;;;;;;;;;;32.21;24.33;99296.34;4922287;29;20239;-94
2022/08/28 11:52:14;;;;;;;;;;;;;;;33.39;23.17;99285.34;4922845;29;19955;-92
2022/08/28 11:55:10;;;;;;;;;;;;;;;33.27;23.29;99283.66;4908151;29;19931;-91
2022/08/28 11:57:58;;;;;;;;;;;;;;;33.05;23.13;99276.38;4936804;29;19994;-93
2022/08/28 12:00:48;;;;;;;;;;;;;;;32.97;23.31;99281.06;4934236;29;19985;-94
2022/08/28 12:03:27;;;;;;;;;;;;;;;32.86;23.29;99286.56;4950704;29;20001;-92
2022/08/28 12:05:59;;;;;;;;;;;;;;;32.68;23.08;99275.25;4924324;29;20021;-90
2022/08/28 12:08:52;;;;;;;;;;;;;;;32.17;22.01;99273.16;4939129;29;19938;-91
2022/08/28 12:11:40;;;;;;;;;;;;;;;31.74;22.18;99267.09;4918925;29;19935;-90
2022/08/28 12:14:32;;;;;;;;;;;;;;;31.75;21.87;99263.09;4923003;29;19941;-93
2022/08/28 12:17:38;;;;;;;;;;;;;;;31.67;22.02;99272.59;4934079;29;19955;-93
2022/08/28 12:20:25;;;;;;;;;;;;;;;31.85;21.78;99268.00;4933440;29;19922;-95
2022/08/28 12:23:30;;;;;;;;;;;;;;;32.10;21.56;99256.34;4956561;29;19969;-90
2022/08/28 12:26:11;;;;;;;;;;;;;;;32.37;21.39;99263.38;4969514;29;19923;-89
2022/08/28 12:29:00;;;;;;;;;;;;;;;32.48;21.06;99260.72;4949330;29;19921;-90
2022/08/28 12:34:45;;;;;;;;;;;;;;;32.68;19.76;99261.28;4935431;29;19931;-88
2022/08/28 12:37:47;;;;;;;;;;;;;;;32.71;19.99;99260.50;4952015;29;20019;-89
2022/08/28 12:40:46;;;;;;;;;;;;;;;32.69;19.96;99259.28;4901605;29;19975;-92
2022/08/28 12:43:16;;;;;;;;;;;;;;;32.69;19.86;99265.69;4919670;29;19937;-89
2022/08/28 12:45:50;;;;;;;;;;;;;;;32.91;19.53;99252.66;4887957;29;19947;-89
2022/08/28 12:48:23;;;;;;;;;;;;;;;32.67;19.16;99251.31;4920205;29;19942;-93
2022/08/28 12:51:13;;;;;;;;;;;;;;;32.86;19.36;99255.03;4932435;29;19931;-89
2022/08/28 12:53:43;;;;;;;;;;;;;;;33.06;19.51;99250.78;4901826;29;19915;-90
2022/08/28 12:56:11;;;;;;;;;;;;;;;33.13;19.92;99245.25;4913856;29;19931;-91
2022/08/28 12:58:44;;;;;;;;;;;;;;;33.20;19.78;99252.88;4901326;29;19954;-88
2022/08/28 13:01:19;;;;;;;;;;;;;;;33.00;19.89;99250.34;4913895;29;19958;-90
2022/08/28 13:03:57;;;;;;;;;;;;;;;32.91;20.41;99244.28;4905131;29;19931;-88
2022/08/28 13:06:30;;;;;;;;;;;;;;;32.75;20.53;99241.78;4881085;29;19935;-91
2022/08/28 13:09:03;;;;;;;;;;;;;;;32.50;20.63;99235.22;4897747;29;20076;-90
2022/08/28 13:11:33;;;;;;;;;;;;;;;32.57;20.76;99238.06;4885576;29;19931;-91
2022/08/28 13:14:00;;;;;;;;;;;;;;;32.56;21.04;99233.66;4870505;29;19931;-91
2022/08/28 13:16:36;;;;;;;;;;;;;;;32.64;21.53;99235.31;4921084;29;19938;-92
2022/08/28 13:19:05;;;;;;;;;;;;;;;33.06;21.47;99224.84;4930099;29;19938;-89
2022/08/28 13:21:36;;;;;;;;;;;;;;;33.55;21.10;99226.28;4955755;29;20034;-89
2022/08/28 13:24:25;;;;;;;;;;;;;;;33.63;21.16;99227.94;4943362;29;19998;-89
2022/08/28 13:27:21;;;;;;;;;;;;;;;33.40;21.21;99231.00;4924368;29;20306;-89
2022/08/28 13:29:54;;;;;;;;;;;;;;;33.20;21.73;99236.91;4904763;29;19982;-88
2022/08/28 13:32:31;;;;;;;;;;;;;;;33.16;21.80;99230.47;4910078;29;19935;-88
2022/08/28 13:35:04;;;;;;;;;;;;;;;33.07;21.83;99224.47;4891109;29;19931;-88